createdAt,value
2018-01-12T00:00:29.585Z,0
2018-01-12T00:01:38.412Z,0
2018-01-12T00:02:47.244Z,0
2018-01-12T00:03:56.069Z,0
2018-01-12T00:05:04.900Z,0
2018-01-12T00:06:13.882Z,0
2018-01-12T00:07:22.714Z,0
2018-01-12T00:08:31.541Z,0
2018-01-12T00:09:40.369Z,0
2018-01-12T00:10:49.198Z,0
2018-01-12T00:11:58.300Z,0
2018-01-12T00:13:07.129Z,0
2018-01-12T00:14:15.956Z,0
2018-01-12T00:15:24.784Z,0
2018-01-12T00:16:33.612Z,0
2018-01-12T00:17:42.740Z,0
2018-01-12T00:18:51.567Z,0
2018-01-12T00:20:00.401Z,0
2018-01-12T00:21:09.225Z,0
2018-01-12T00:22:18.053Z,0
2018-01-12T00:23:27.034Z,0
2018-01-12T00:24:36.410Z,0
2018-01-12T00:25:45.516Z,0
2018-01-12T00:26:54.343Z,0
2018-01-12T00:28:03.172Z,0
2018-01-12T00:29:12.099Z,0
2018-01-12T00:30:20.926Z,0
2018-01-12T00:31:29.752Z,0
2018-01-12T00:32:38.580Z,0
2018-01-12T00:33:47.682Z,0
2018-01-12T00:34:56.506Z,0
2018-01-12T00:36:05.334Z,0
2018-01-12T00:37:14.493Z,0
2018-01-12T00:38:23.323Z,0
2018-01-12T00:39:32.152Z,0
2018-01-12T00:40:41.354Z,0
2018-01-12T00:41:50.183Z,0
2018-01-12T00:42:59.013Z,0
2018-01-12T00:44:08.119Z,0
2018-01-12T00:45:17.224Z,0
2018-01-12T00:46:26.202Z,0
2018-01-12T00:47:35.030Z,0
2018-01-12T00:48:43.855Z,0
2018-01-12T00:49:52.683Z,0
2018-01-12T00:51:01.513Z,0
2018-01-12T00:52:10.492Z,0
2018-01-12T00:53:19.318Z,0
2018-01-12T00:54:28.421Z,0
2018-01-12T00:55:37.524Z,0
2018-01-12T00:56:46.626Z,0
2018-01-12T00:57:55.502Z,0
2018-01-12T00:59:04.333Z,0
2018-01-12T01:00:13.162Z,0
2018-01-12T01:01:21.988Z,0
2018-01-12T01:02:30.817Z,0
2018-01-12T01:03:39.793Z,0
2018-01-12T01:04:48.622Z,0
2018-01-12T01:05:57.456Z,0
2018-01-12T01:07:06.281Z,0
2018-01-12T01:08:15.109Z,0
2018-01-12T01:09:24.240Z,0
2018-01-12T01:10:33.068Z,0
2018-01-12T01:11:41.901Z,0
2018-01-12T01:12:50.728Z,0
2018-01-12T01:13:59.556Z,0
2018-01-12T01:15:08.433Z,0
2018-01-12T01:16:17.262Z,0
2018-01-12T01:17:26.361Z,0
2018-01-12T01:18:35.186Z,0
2018-01-12T01:19:44.015Z,0
2018-01-12T01:20:52.994Z,0
2018-01-12T01:22:02.094Z,0
2018-01-12T01:23:10.927Z,0
2018-01-12T01:24:19.758Z,0
2018-01-12T01:25:28.862Z,0
2018-01-12T01:26:37.690Z,0
2018-01-12T01:27:46.522Z,0
2018-01-12T01:28:55.350Z,0
2018-01-12T01:30:04.175Z,0
2018-01-12T01:31:13.003Z,0
2018-01-12T01:32:21.831Z,0
2018-01-12T01:33:30.660Z,0
2018-01-12T01:34:39.494Z,0
2018-01-12T01:35:48.595Z,0
2018-01-12T01:36:57.420Z,0
2018-01-12T01:38:06.246Z,0
2018-01-12T01:39:15.074Z,0
2018-01-12T01:40:23.900Z,0
2018-01-12T01:41:32.730Z,0
2018-01-12T01:42:41.759Z,0
2018-01-12T01:43:50.960Z,0
2018-01-12T01:44:59.791Z,0
2018-01-12T01:46:08.617Z,0
2018-01-12T01:47:17.447Z,0
2018-01-12T01:48:26.276Z,0
2018-01-12T01:49:35.377Z,0
2018-01-12T01:50:44.751Z,0
2018-01-12T01:51:53.581Z,0
2018-01-12T01:53:02.409Z,0
2018-01-12T01:54:11.237Z,0
2018-01-12T01:55:20.396Z,0
2018-01-12T01:56:29.238Z,0
2018-01-12T01:57:38.066Z,0
2018-01-12T01:58:46.896Z,0
2018-01-12T01:59:55.724Z,0
2018-01-12T02:01:04.654Z,0
2018-01-12T02:02:13.482Z,0
2018-01-12T02:03:22.581Z,0
2018-01-12T02:04:31.409Z,0
2018-01-12T02:05:40.238Z,0
2018-01-12T02:06:49.215Z,0
2018-01-12T02:07:58.043Z,0
2018-01-12T02:09:06.874Z,0
2018-01-12T02:10:15.702Z,0
2018-01-12T02:11:24.803Z,0
2018-01-12T02:12:33.781Z,0
2018-01-12T02:13:42.608Z,0
2018-01-12T02:14:51.437Z,0
2018-01-12T02:16:00.266Z,0
2018-01-12T02:17:09.090Z,0
2018-01-12T02:18:18.068Z,0
2018-01-12T02:19:27.449Z,0
2018-01-12T02:20:36.278Z,0
2018-01-12T02:21:45.104Z,0
2018-01-12T02:22:53.933Z,0
2018-01-12T02:24:02.812Z,0
2018-01-12T02:25:11.643Z,0
2018-01-12T02:26:20.469Z,0
2018-01-12T02:27:29.297Z,0
2018-01-12T02:28:38.124Z,0
2018-01-12T02:29:47.203Z,0
2018-01-12T02:30:56.041Z,0
2018-01-12T02:32:04.858Z,0
2018-01-12T02:33:13.687Z,0
2018-01-12T02:34:22.792Z,0
2018-01-12T02:35:31.824Z,0
2018-01-12T02:36:40.648Z,0
2018-01-12T02:37:49.477Z,0
2018-01-12T02:38:58.307Z,0
2018-01-12T02:40:07.134Z,0
2018-01-12T02:41:16.293Z,0
2018-01-12T02:42:25.122Z,0
2018-01-12T02:43:33.951Z,0
2018-01-12T02:44:42.779Z,0
2018-01-12T02:45:51.608Z,0
2018-01-12T02:47:00.437Z,0
2018-01-12T02:48:09.266Z,0
2018-01-12T02:49:18.094Z,0
2018-01-12T02:50:26.922Z,0
2018-01-12T02:51:35.749Z,0
2018-01-12T02:52:44.824Z,0
2018-01-12T02:53:53.652Z,0
2018-01-12T02:55:02.495Z,0
2018-01-12T02:56:11.308Z,0
2018-01-12T02:57:20.412Z,0
2018-01-12T02:58:29.339Z,0
2018-01-12T02:59:38.166Z,0
2018-01-12T03:00:46.996Z,0
2018-01-12T03:01:56.096Z,0
2018-01-12T03:03:05.202Z,0
2018-01-12T03:04:14.127Z,0
2018-01-12T03:05:22.951Z,0
2018-01-12T03:06:31.784Z,0
2018-01-12T03:07:40.886Z,0
2018-01-12T03:08:49.715Z,0
2018-01-12T03:09:58.641Z,0
2018-01-12T03:11:07.471Z,0
2018-01-12T03:12:16.300Z,0
2018-01-12T03:13:25.131Z,0
2018-01-12T03:14:33.961Z,0
2018-01-12T03:15:42.939Z,0
2018-01-12T03:16:51.770Z,0
2018-01-12T03:18:00.597Z,0
2018-01-12T03:19:09.424Z,0
2018-01-12T03:20:18.250Z,0
2018-01-12T03:21:27.127Z,0
2018-01-12T03:22:35.955Z,0
2018-01-12T03:23:44.789Z,0
2018-01-12T03:24:53.611Z,0
2018-01-12T03:26:02.441Z,0
2018-01-12T03:27:11.321Z,0
2018-01-12T03:28:20.148Z,0
2018-01-12T03:29:28.976Z,0
2018-01-12T03:30:37.806Z,0
2018-01-12T03:31:46.636Z,0
2018-01-12T03:32:55.566Z,0
2018-01-12T03:34:05.218Z,0
2018-01-12T03:35:14.049Z,0
2018-01-12T03:36:22.870Z,0
2018-01-12T03:37:31.698Z,0
2018-01-12T03:38:40.625Z,0
2018-01-12T03:39:49.454Z,0
2018-01-12T03:40:58.283Z,0
2018-01-12T03:42:07.113Z,0
2018-01-12T03:43:15.992Z,0
2018-01-12T03:44:24.871Z,0
2018-01-12T03:45:33.696Z,0
2018-01-12T03:46:42.798Z,0
2018-01-12T03:47:51.904Z,0
2018-01-12T03:49:00.737Z,0
2018-01-12T03:50:09.667Z,0
2018-01-12T03:51:18.489Z,0
2018-01-12T03:52:27.319Z,0
2018-01-12T03:53:36.146Z,0
2018-01-12T03:54:44.975Z,0
2018-01-12T03:55:54.054Z,0
2018-01-12T03:57:02.879Z,0
2018-01-12T03:58:11.982Z,0
2018-01-12T03:59:21.085Z,0
2018-01-12T04:00:29.913Z,0
2018-01-12T04:01:38.738Z,0
2018-01-12T04:02:47.890Z,0
2018-01-12T04:03:56.717Z,0
2018-01-12T04:05:05.546Z,0
2018-01-12T04:06:14.376Z,0
2018-01-12T04:07:23.503Z,0
2018-01-12T04:08:32.604Z,0
2018-01-12T04:09:41.433Z,0
2018-01-12T04:10:50.260Z,0
2018-01-12T04:11:59.088Z,0
2018-01-12T04:13:07.966Z,0
2018-01-12T04:14:16.793Z,0
2018-01-12T04:15:25.621Z,0
2018-01-12T04:16:34.447Z,0
2018-01-12T04:17:43.276Z,0
2018-01-12T04:18:52.404Z,0
2018-01-12T04:20:01.232Z,0
2018-01-12T04:21:10.648Z,0
2018-01-12T04:22:19.440Z,0
2018-01-12T04:23:28.268Z,0
2018-01-12T04:24:37.248Z,0
2018-01-12T04:25:46.352Z,0
2018-01-12T04:26:55.181Z,0
2018-01-12T04:28:04.286Z,0
2018-01-12T04:29:13.120Z,0
2018-01-12T04:30:22.046Z,0
2018-01-12T04:31:30.874Z,0
2018-01-12T04:32:39.702Z,0
2018-01-12T04:33:48.800Z,0
2018-01-12T04:34:57.633Z,0
2018-01-12T04:36:06.611Z,0
2018-01-12T04:37:15.438Z,0
2018-01-12T04:38:24.265Z,0
2018-01-12T04:39:33.095Z,0
2018-01-12T04:40:42.203Z,0
2018-01-12T04:41:51.032Z,0
2018-01-12T04:42:59.866Z,0
2018-01-12T04:44:08.694Z,0
2018-01-12T04:45:17.520Z,0
2018-01-12T04:46:26.351Z,0
2018-01-12T04:47:35.505Z,0
2018-01-12T04:48:44.333Z,0
2018-01-12T04:49:53.432Z,0
2018-01-12T04:51:02.261Z,0
2018-01-12T04:52:11.087Z,0
2018-01-12T04:53:19.964Z,0
2018-01-12T04:54:28.792Z,0
2018-01-12T04:55:37.618Z,0
2018-01-12T04:56:46.460Z,0
2018-01-12T04:57:55.300Z,0
2018-01-12T04:59:04.143Z,0
2018-01-12T05:00:12.984Z,0
2018-01-12T05:01:21.825Z,0
2018-01-12T05:02:30.944Z,0
2018-01-12T05:03:39.784Z,0
2018-01-12T05:04:49.002Z,0
2018-01-12T05:05:57.842Z,0
2018-01-12T05:07:06.961Z,0
2018-01-12T05:08:15.803Z,0
2018-01-12T05:09:24.646Z,0
2018-01-12T05:10:33.489Z,0
2018-01-12T05:11:42.331Z,0
2018-01-12T05:12:51.178Z,0
2018-01-12T05:14:00.027Z,0
2018-01-12T05:15:09.426Z,0
2018-01-12T05:16:18.426Z,0
2018-01-12T05:17:27.214Z,0
2018-01-12T05:18:36.057Z,0
2018-01-12T05:19:44.895Z,0
2018-01-12T05:20:53.736Z,0
2018-01-12T05:22:02.575Z,0
2018-01-12T05:23:11.410Z,0
2018-01-12T05:24:20.237Z,0
2018-01-12T05:25:29.068Z,0
2018-01-12T05:26:37.897Z,0
2018-01-12T05:27:47.151Z,0
2018-01-12T05:28:55.928Z,0
2018-01-12T05:30:04.758Z,0
2018-01-12T05:31:13.590Z,0
2018-01-12T05:32:22.690Z,0
2018-01-12T05:33:31.670Z,0
2018-01-12T05:34:40.504Z,0
2018-01-12T05:35:49.332Z,0
2018-01-12T05:36:58.158Z,0
2018-01-12T05:38:07.284Z,0
2018-01-12T05:39:16.308Z,0
2018-01-12T05:40:25.124Z,0
2018-01-12T05:41:34.234Z,0
2018-01-12T05:42:43.062Z,0
2018-01-12T05:43:51.891Z,0
2018-01-12T05:45:01.297Z,0
2018-01-12T05:46:10.128Z,0
2018-01-12T05:47:19.007Z,0
2018-01-12T05:48:27.836Z,0
2018-01-12T05:49:36.663Z,0
2018-01-12T05:50:45.542Z,0
2018-01-12T05:51:54.369Z,0
2018-01-12T05:53:03.194Z,0
2018-01-12T05:54:12.026Z,0
2018-01-12T05:55:20.856Z,0
2018-01-12T05:56:29.683Z,0
2018-01-12T05:57:38.512Z,0
2018-01-12T05:58:47.341Z,0
2018-01-12T05:59:56.170Z,0
2018-01-12T06:01:05.053Z,0
2018-01-12T06:02:14.276Z,0
2018-01-12T06:03:23.105Z,0
2018-01-12T06:04:31.932Z,0
2018-01-12T06:05:40.759Z,0
2018-01-12T06:06:49.588Z,0
2018-01-12T06:07:58.416Z,0
2018-01-12T06:09:07.242Z,0
2018-01-12T06:10:16.070Z,0
2018-01-12T06:11:24.900Z,0
2018-01-12T06:12:33.734Z,0
2018-01-12T06:13:42.983Z,0
2018-01-12T06:14:52.091Z,0
2018-01-12T06:16:00.918Z,0
2018-01-12T06:17:09.748Z,0
2018-01-12T06:18:18.578Z,0
2018-01-12T06:19:27.405Z,0
2018-01-12T06:20:36.233Z,0
2018-01-12T06:21:45.064Z,0
2018-01-12T06:22:53.891Z,0
2018-01-12T06:24:02.724Z,0
2018-01-12T06:25:11.705Z,0
2018-01-12T06:26:20.533Z,0
2018-01-12T06:27:29.368Z,0
2018-01-12T06:28:38.469Z,0
2018-01-12T06:29:47.297Z,0
2018-01-12T06:30:56.174Z,0
2018-01-12T06:32:05.001Z,0
2018-01-12T06:33:14.103Z,0
2018-01-12T06:34:22.933Z,0
2018-01-12T06:35:31.765Z,0
2018-01-12T06:36:41.265Z,0
2018-01-12T06:37:50.366Z,0
2018-01-12T06:38:59.192Z,0
2018-01-12T06:40:08.020Z,0
2018-01-12T06:41:16.850Z,0
2018-01-12T06:42:25.780Z,0
2018-01-12T06:43:34.881Z,0
2018-01-12T06:44:43.709Z,0
2018-01-12T06:45:52.538Z,0
2018-01-12T06:47:01.366Z,0
2018-01-12T06:48:10.498Z,0
2018-01-12T06:49:19.326Z,0
2018-01-12T06:50:28.430Z,0
2018-01-12T06:51:37.258Z,0
2018-01-12T06:52:46.085Z,0
2018-01-12T06:53:54.967Z,0
2018-01-12T06:55:03.789Z,0
2018-01-12T06:56:12.670Z,0
2018-01-12T06:57:21.500Z,0
2018-01-12T06:58:30.598Z,0
2018-01-12T06:59:39.579Z,0
2018-01-12T07:00:48.687Z,0
2018-01-12T07:01:57.510Z,0
2018-01-12T07:03:06.337Z,0
2018-01-12T07:04:15.453Z,0
2018-01-12T07:05:24.327Z,0
2018-01-12T07:06:33.434Z,0
2018-01-12T07:07:42.264Z,0
2018-01-12T07:08:51.093Z,0
2018-01-12T07:10:00.200Z,0
2018-01-12T07:11:09.092Z,0
2018-01-12T07:12:17.920Z,0
2018-01-12T07:13:27.300Z,0
2018-01-12T07:14:36.128Z,0
2018-01-12T07:15:44.957Z,0
2018-01-12T07:16:53.832Z,0
2018-01-12T07:18:02.668Z,0
2018-01-12T07:19:11.498Z,0
2018-01-12T07:20:20.332Z,0
2018-01-12T07:21:29.157Z,0
2018-01-12T07:22:38.134Z,0
2018-01-12T07:23:46.962Z,0
2018-01-12T07:24:55.798Z,0
2018-01-12T07:26:04.629Z,0
2018-01-12T07:27:13.453Z,0
2018-01-12T07:28:22.284Z,0
2018-01-12T07:29:31.115Z,0
2018-01-12T07:30:39.942Z,0
2018-01-12T07:31:48.776Z,0
2018-01-12T07:32:57.871Z,0
2018-01-12T07:34:07.098Z,0
2018-01-12T07:35:16.202Z,0
2018-01-12T07:36:25.031Z,0
2018-01-12T07:37:33.860Z,0
2018-01-12T07:38:42.685Z,0
2018-01-12T07:39:51.665Z,0
2018-01-12T07:41:00.492Z,0
2018-01-12T07:42:09.320Z,0
2018-01-12T07:43:18.150Z,0
2018-01-12T07:44:26.979Z,0
2018-01-12T07:45:36.059Z,0
2018-01-12T07:46:44.889Z,0
2018-01-12T07:47:53.757Z,0
2018-01-12T07:49:02.545Z,5
2018-01-12T07:50:11.371Z,5
2018-01-12T07:51:20.200Z,5
2018-01-12T07:52:29.028Z,5
2018-01-12T07:53:37.855Z,5
2018-01-12T07:54:46.682Z,5
2018-01-12T07:55:55.511Z,5
2018-01-12T07:57:04.763Z,10
2018-01-12T07:58:13.595Z,10
2018-01-12T07:59:22.968Z,10
2018-01-12T08:00:31.798Z,10
2018-01-12T08:01:40.626Z,10
2018-01-12T08:02:49.456Z,10
2018-01-12T08:03:58.285Z,10
2018-01-12T08:05:07.112Z,10
2018-01-12T08:06:15.938Z,10
2018-01-12T08:07:24.765Z,10
2018-01-12T08:08:33.644Z,10
2018-01-12T08:09:42.473Z,10
2018-01-12T08:10:51.578Z,10
2018-01-12T08:12:00.412Z,10
2018-01-12T08:13:09.237Z,10
2018-01-12T08:14:18.068Z,10
2018-01-12T08:15:26.892Z,15
2018-01-12T08:16:35.717Z,15
2018-01-12T08:17:44.545Z,15
2018-01-12T08:18:53.371Z,15
2018-01-12T08:20:02.349Z,15
2018-01-12T08:21:11.180Z,15
2018-01-12T08:22:20.005Z,20
2018-01-12T08:23:28.832Z,20
2018-01-12T08:24:37.661Z,20
2018-01-12T08:25:46.494Z,20
2018-01-12T08:26:55.321Z,20
2018-01-12T08:28:04.150Z,25
2018-01-12T08:29:12.975Z,25
2018-01-12T08:30:21.804Z,30
2018-01-12T08:31:30.687Z,30
2018-01-12T08:32:39.508Z,35
2018-01-12T08:33:48.333Z,40
2018-01-12T08:34:57.158Z,40
2018-01-12T08:36:05.985Z,40
2018-01-12T08:37:14.859Z,40
2018-01-12T08:38:23.967Z,35
2018-01-12T08:39:32.802Z,30
2018-01-12T08:40:41.899Z,25
2018-01-12T08:41:50.727Z,20
2018-01-12T08:42:59.703Z,20
2018-01-12T08:44:08.530Z,20
2018-01-12T08:45:17.357Z,25
2018-01-12T08:46:26.185Z,20
2018-01-12T08:47:35.013Z,25
2018-01-12T08:48:43.838Z,25
2018-01-12T08:49:52.667Z,25
2018-01-12T08:51:01.495Z,30
2018-01-12T08:52:10.320Z,30
2018-01-12T08:53:19.148Z,25
2018-01-12T08:54:28.023Z,30
2018-01-12T08:55:36.850Z,30
2018-01-12T08:56:45.679Z,30
2018-01-12T08:57:54.504Z,35
2018-01-12T08:59:03.333Z,30
2018-01-12T09:00:12.309Z,35
2018-01-12T09:01:21.138Z,35
2018-01-12T09:02:30.244Z,30
2018-01-12T09:03:39.073Z,25
2018-01-12T09:04:47.902Z,25
2018-01-12T09:05:57.152Z,25
2018-01-12T09:07:05.979Z,30
2018-01-12T09:08:14.804Z,25
2018-01-12T09:09:23.632Z,30
2018-01-12T09:10:32.497Z,30
2018-01-12T09:11:41.336Z,25
2018-01-12T09:12:50.165Z,25
2018-01-12T09:13:59.264Z,30
2018-01-12T09:15:08.090Z,30
2018-01-12T09:16:16.916Z,30
2018-01-12T09:17:25.743Z,35
2018-01-12T09:18:34.572Z,30
2018-01-12T09:19:43.400Z,35
2018-01-12T09:20:52.226Z,35
2018-01-12T09:22:01.054Z,40
2018-01-12T09:23:09.932Z,40
2018-01-12T09:24:19.037Z,35
2018-01-12T09:25:27.863Z,35
2018-01-12T09:26:36.690Z,40
2018-01-12T09:27:45.516Z,45
2018-01-12T09:28:54.494Z,45
2018-01-12T09:30:03.320Z,40
2018-01-12T09:31:12.146Z,40
2018-01-12T09:32:20.970Z,45
2018-01-12T09:33:29.799Z,40
2018-01-12T09:34:38.777Z,40
2018-01-12T09:35:47.874Z,45
2018-01-12T09:36:56.975Z,45
2018-01-12T09:38:05.818Z,40
2018-01-12T09:39:14.647Z,40
2018-01-12T09:40:23.815Z,35
2018-01-12T09:41:32.636Z,35
2018-01-12T09:42:41.466Z,35
2018-01-12T09:43:50.297Z,35
2018-01-12T09:44:59.393Z,40
2018-01-12T09:46:08.794Z,40
2018-01-12T09:47:17.896Z,35
2018-01-12T09:48:26.723Z,40
2018-01-12T09:49:35.552Z,40
2018-01-12T09:50:44.659Z,40
2018-01-12T09:51:53.534Z,40
2018-01-12T09:53:02.639Z,40
2018-01-12T09:54:11.465Z,40
2018-01-12T09:55:20.292Z,45
2018-01-12T09:56:29.395Z,45
2018-01-12T09:57:38.423Z,45
2018-01-12T09:58:47.249Z,45
2018-01-12T09:59:56.077Z,45
2018-01-12T10:01:04.907Z,50
2018-01-12T10:02:13.734Z,50
2018-01-12T10:03:22.614Z,55
2018-01-12T10:04:31.442Z,55
2018-01-12T10:05:40.268Z,60
2018-01-12T10:06:49.095Z,65
2018-01-12T10:07:57.921Z,65
2018-01-12T10:09:06.747Z,65
2018-01-12T10:10:15.575Z,55
2018-01-12T10:11:24.401Z,50
2018-01-12T10:12:33.228Z,45
2018-01-12T10:13:42.068Z,35
2018-01-12T10:14:51.185Z,35
2018-01-12T10:16:00.016Z,40
2018-01-12T10:17:09.119Z,40
2018-01-12T10:18:17.946Z,50
2018-01-12T10:19:26.772Z,55
2018-01-12T10:20:35.749Z,50
2018-01-12T10:21:44.575Z,45
2018-01-12T10:22:53.403Z,45
2018-01-12T10:24:02.228Z,40
2018-01-12T10:25:11.057Z,45
2018-01-12T10:26:20.084Z,45
2018-01-12T10:27:28.913Z,45
2018-01-12T10:28:37.742Z,50
2018-01-12T10:29:46.570Z,55
2018-01-12T10:30:55.396Z,60
2018-01-12T10:32:04.224Z,70
2018-01-12T10:33:13.049Z,70
2018-01-12T10:34:21.876Z,65
2018-01-12T10:35:30.707Z,75
2018-01-12T10:36:39.533Z,75
2018-01-12T10:37:48.512Z,80
2018-01-12T10:38:57.614Z,90
2018-01-12T10:40:06.440Z,90
2018-01-12T10:41:15.269Z,95
2018-01-12T10:42:24.093Z,100
2018-01-12T10:43:33.022Z,95
2018-01-12T10:44:41.850Z,100
2018-01-12T10:45:50.952Z,90
2018-01-12T10:46:59.787Z,95
2018-01-12T10:48:08.607Z,95
2018-01-12T10:49:17.534Z,95
2018-01-12T10:50:26.637Z,90
2018-01-12T10:51:35.467Z,80
2018-01-12T10:52:44.294Z,70
2018-01-12T10:53:53.119Z,65
2018-01-12T10:55:02.224Z,60
2018-01-12T10:56:11.053Z,60
2018-01-12T10:57:19.880Z,65
2018-01-12T10:58:28.707Z,60
2018-01-12T10:59:37.535Z,60
2018-01-12T11:00:46.410Z,55
2018-01-12T11:01:55.511Z,55
2018-01-12T11:03:04.338Z,55
2018-01-12T11:04:13.165Z,50
2018-01-12T11:05:21.995Z,50
2018-01-12T11:06:31.120Z,55
2018-01-12T11:07:39.948Z,60
2018-01-12T11:08:48.777Z,50
2018-01-12T11:09:57.603Z,60
2018-01-12T11:11:06.431Z,60
2018-01-12T11:12:15.559Z,60
2018-01-12T11:13:24.385Z,60
2018-01-12T11:14:33.215Z,65
2018-01-12T11:15:42.314Z,70
2018-01-12T11:16:51.143Z,65
2018-01-12T11:18:00.025Z,60
2018-01-12T11:19:09.457Z,60
2018-01-12T11:20:18.286Z,55
2018-01-12T11:21:27.111Z,60
2018-01-12T11:22:35.938Z,65
2018-01-12T11:23:44.863Z,65
2018-01-12T11:24:53.691Z,65
2018-01-12T11:26:02.517Z,55
2018-01-12T11:27:11.345Z,50
2018-01-12T11:28:20.173Z,50
2018-01-12T11:29:29.283Z,55
2018-01-12T11:30:38.111Z,45
2018-01-12T11:31:46.939Z,40
2018-01-12T11:32:55.767Z,30
2018-01-12T11:34:05.144Z,30
2018-01-12T11:35:13.970Z,35
2018-01-12T11:36:22.795Z,30
2018-01-12T11:37:31.624Z,35
2018-01-12T11:38:40.454Z,40
2018-01-12T11:39:49.280Z,40
2018-01-12T11:40:58.207Z,40
2018-01-12T11:42:07.039Z,45
2018-01-12T11:43:15.864Z,40
2018-01-12T11:44:24.690Z,40
2018-01-12T11:45:33.515Z,35
2018-01-12T11:46:42.494Z,30
2018-01-12T11:47:51.323Z,30
2018-01-12T11:49:00.150Z,30
2018-01-12T11:50:08.980Z,30
2018-01-12T11:51:17.810Z,30
2018-01-12T11:52:27.060Z,30
2018-01-12T11:53:35.888Z,35
2018-01-12T11:54:44.714Z,35
2018-01-12T11:55:53.540Z,35
2018-01-12T11:57:02.368Z,35
2018-01-12T11:58:11.344Z,35
2018-01-12T11:59:20.171Z,35
2018-01-12T12:00:29.272Z,35
2018-01-12T12:01:38.099Z,40
2018-01-12T12:02:47.201Z,45
2018-01-12T12:03:56.028Z,45
2018-01-12T12:05:04.856Z,45
2018-01-12T12:06:13.680Z,45
2018-01-12T12:07:22.513Z,45
2018-01-12T12:08:31.613Z,45
2018-01-12T12:09:40.542Z,45
2018-01-12T12:10:49.370Z,45
2018-01-12T12:11:58.195Z,45
2018-01-12T12:13:07.025Z,45
2018-01-12T12:14:15.853Z,50
2018-01-12T12:15:24.983Z,60
2018-01-12T12:16:33.809Z,50
2018-01-12T12:17:42.637Z,50
2018-01-12T12:18:51.464Z,45
2018-01-12T12:20:00.292Z,45
2018-01-12T12:21:09.119Z,50
2018-01-12T12:22:17.947Z,55
2018-01-12T12:23:26.827Z,60
2018-01-12T12:24:35.608Z,60
2018-01-12T12:25:44.433Z,60
2018-01-12T12:26:53.514Z,55
2018-01-12T12:28:02.619Z,60
2018-01-12T12:29:11.448Z,55
2018-01-12T12:30:20.283Z,50
2018-01-12T12:31:29.112Z,55
2018-01-12T12:32:37.940Z,60
2018-01-12T12:33:47.042Z,60
2018-01-12T12:34:55.865Z,50
2018-01-12T12:36:04.694Z,55
2018-01-12T12:37:13.524Z,55
2018-01-12T12:38:22.500Z,55
2018-01-12T12:39:31.328Z,65
2018-01-12T12:40:40.157Z,60
2018-01-12T12:41:48.983Z,65
2018-01-12T12:42:57.809Z,65
2018-01-12T12:44:06.787Z,70
2018-01-12T12:45:15.614Z,75
2018-01-12T12:46:24.440Z,90
2018-01-12T12:47:33.266Z,90
2018-01-12T12:48:42.094Z,85
2018-01-12T12:49:50.919Z,75
2018-01-12T12:50:59.747Z,70
2018-01-12T12:52:08.574Z,65
2018-01-12T12:53:17.401Z,60
2018-01-12T12:54:26.232Z,60
2018-01-12T12:55:35.065Z,60
2018-01-12T12:56:43.885Z,55
2018-01-12T12:57:52.714Z,50
2018-01-12T12:59:01.544Z,50
2018-01-12T13:00:10.642Z,45
2018-01-12T13:01:19.521Z,50
2018-01-12T13:02:28.627Z,45
2018-01-12T13:03:37.724Z,40
2018-01-12T13:04:46.551Z,45
2018-01-12T13:05:55.381Z,40
2018-01-12T13:07:04.209Z,45
2018-01-12T13:08:13.043Z,40
2018-01-12T13:09:21.863Z,40
2018-01-12T13:10:30.690Z,35
2018-01-12T13:11:39.573Z,35
2018-01-12T13:12:48.444Z,30
2018-01-12T13:13:57.271Z,35
2018-01-12T13:15:06.101Z,40
2018-01-12T13:16:15.204Z,35
2018-01-12T13:17:24.032Z,40
2018-01-12T13:18:32.959Z,35
2018-01-12T13:19:41.785Z,40
2018-01-12T13:20:50.612Z,45
2018-01-12T13:21:59.440Z,55
2018-01-12T13:23:08.544Z,60
2018-01-12T13:24:17.471Z,60
2018-01-12T13:25:26.300Z,60
2018-01-12T13:26:35.130Z,55
2018-01-12T13:27:43.954Z,60
2018-01-12T13:28:52.785Z,65
2018-01-12T13:30:01.909Z,60
2018-01-12T13:31:10.738Z,60
2018-01-12T13:32:19.566Z,55
2018-01-12T13:33:28.391Z,60
2018-01-12T13:34:37.220Z,60
2018-01-12T13:35:46.476Z,55
2018-01-12T13:36:55.305Z,55
2018-01-12T13:38:04.130Z,55
2018-01-12T13:39:12.957Z,55
2018-01-12T13:40:21.784Z,55
2018-01-12T13:41:30.762Z,60
2018-01-12T13:42:39.920Z,55
2018-01-12T13:43:48.692Z,60
2018-01-12T13:44:57.521Z,55
2018-01-12T13:46:06.349Z,55
2018-01-12T13:47:15.327Z,55
2018-01-12T13:48:24.154Z,50
2018-01-12T13:49:32.982Z,40
2018-01-12T13:50:41.810Z,40
2018-01-12T13:51:50.638Z,35
2018-01-12T13:52:59.464Z,35
2018-01-12T13:54:08.291Z,35
2018-01-12T13:55:17.118Z,35
2018-01-12T13:56:25.944Z,30
2018-01-12T13:57:34.773Z,30
2018-01-12T13:58:43.900Z,25
2018-01-12T13:59:52.732Z,30
2018-01-12T14:01:01.554Z,30
2018-01-12T14:02:10.382Z,30
2018-01-12T14:03:19.210Z,35
2018-01-12T14:04:28.088Z,40
2018-01-12T14:05:36.916Z,40
2018-01-12T14:06:45.742Z,35
2018-01-12T14:07:54.567Z,35
2018-01-12T14:09:03.395Z,30
2018-01-12T14:10:12.226Z,30
2018-01-12T14:11:21.323Z,30
2018-01-12T14:12:30.154Z,30
2018-01-12T14:13:38.985Z,30
2018-01-12T14:14:47.813Z,35
2018-01-12T14:15:56.702Z,30
2018-01-12T14:17:05.541Z,35
2018-01-12T14:18:14.379Z,35
2018-01-12T14:19:23.207Z,35
2018-01-12T14:20:32.035Z,35
2018-01-12T14:21:41.263Z,30
2018-01-12T14:22:50.092Z,30
2018-01-12T14:23:58.918Z,25
2018-01-12T14:25:07.746Z,25
2018-01-12T14:26:16.575Z,30
2018-01-12T14:27:25.452Z,30
2018-01-12T14:28:34.553Z,30
2018-01-12T14:29:43.381Z,30
2018-01-12T14:30:52.205Z,30
2018-01-12T14:32:01.036Z,30
2018-01-12T14:33:10.012Z,30
2018-01-12T14:34:18.839Z,25
2018-01-12T14:35:27.667Z,30
2018-01-12T14:36:36.493Z,25
2018-01-12T14:37:45.320Z,20
2018-01-12T14:38:54.249Z,20
2018-01-12T14:40:03.075Z,20
2018-01-12T14:41:11.904Z,20
2018-01-12T14:42:21.008Z,20
2018-01-12T14:43:29.839Z,20
2018-01-12T14:44:38.662Z,20
2018-01-12T14:45:47.490Z,20
2018-01-12T14:46:56.317Z,20
2018-01-12T14:48:05.143Z,20
2018-01-12T14:49:13.969Z,20
2018-01-12T14:50:22.795Z,20
2018-01-12T14:51:31.624Z,20
2018-01-12T14:52:40.450Z,20
2018-01-12T14:53:49.277Z,20
2018-01-12T14:54:58.107Z,15
2018-01-12T14:56:06.934Z,10
2018-01-12T14:57:15.761Z,10
2018-01-12T14:58:24.589Z,10
2018-01-12T14:59:33.422Z,10
2018-01-12T15:00:42.246Z,10
2018-01-12T15:01:51.108Z,10
2018-01-12T15:02:59.936Z,10
2018-01-12T15:04:08.763Z,10
2018-01-12T15:05:17.594Z,10
2018-01-12T15:06:26.421Z,10
2018-01-12T15:07:35.247Z,10
2018-01-12T15:08:44.076Z,10
2018-01-12T15:09:53.179Z,10
2018-01-12T15:11:02.005Z,10
2018-01-12T15:12:10.832Z,5
2018-01-12T15:13:19.659Z,5
2018-01-12T15:14:28.487Z,5
2018-01-12T15:15:37.313Z,5
2018-01-12T15:16:46.139Z,5
2018-01-12T15:17:54.990Z,5
2018-01-12T15:19:03.794Z,5
2018-01-12T15:20:12.620Z,5
2018-01-12T15:21:21.718Z,5
2018-01-12T15:22:30.545Z,5
2018-01-12T15:23:39.372Z,5
2018-01-12T15:24:48.200Z,0
2018-01-12T15:25:57.035Z,0
2018-01-12T15:27:05.914Z,0
2018-01-12T15:28:14.739Z,0
2018-01-12T15:29:23.568Z,0
2018-01-12T15:30:32.408Z,0
2018-01-12T15:31:41.240Z,0
2018-01-12T15:32:50.165Z,0
2018-01-12T15:33:58.993Z,0
2018-01-12T15:35:07.821Z,0
2018-01-12T15:36:16.924Z,0
2018-01-12T15:37:25.759Z,0
2018-01-12T15:38:35.135Z,0
2018-01-12T15:39:43.961Z,0
2018-01-12T15:40:53.066Z,0
2018-01-12T15:42:01.894Z,0
2018-01-12T15:43:10.993Z,0
2018-01-12T15:44:20.123Z,0
2018-01-12T15:45:28.948Z,0
2018-01-12T15:46:37.775Z,0
2018-01-12T15:47:46.882Z,0
2018-01-12T15:48:55.708Z,0
2018-01-12T15:50:04.827Z,0
2018-01-12T15:51:13.655Z,0
2018-01-12T15:52:22.570Z,0
2018-01-12T15:53:31.402Z,0
2018-01-12T15:54:40.260Z,0
2018-01-12T15:55:49.656Z,0
2018-01-12T15:56:58.484Z,0
2018-01-12T15:58:07.310Z,0
2018-01-12T15:59:16.135Z,0
2018-01-12T16:00:24.964Z,0
2018-01-12T16:01:33.840Z,0
2018-01-12T16:02:42.943Z,0
2018-01-12T16:03:51.772Z,0
2018-01-12T16:05:00.614Z,0
2018-01-12T16:06:09.436Z,0
2018-01-12T16:07:18.416Z,0
2018-01-12T16:08:27.246Z,0
2018-01-12T16:09:36.074Z,0
2018-01-12T16:10:44.903Z,0
2018-01-12T16:11:53.736Z,0
2018-01-12T16:13:02.914Z,0
2018-01-12T16:14:12.062Z,0
2018-01-12T16:15:20.899Z,0
2018-01-12T16:16:29.776Z,0
2018-01-12T16:17:38.606Z,0
2018-01-12T16:18:47.808Z,0
2018-01-12T16:19:56.637Z,0
2018-01-12T16:21:05.467Z,0
2018-01-12T16:22:14.296Z,0
2018-01-12T16:23:23.125Z,0
2018-01-12T16:24:32.050Z,0
2018-01-12T16:25:40.875Z,0
2018-01-12T16:26:49.704Z,0
2018-01-12T16:27:58.530Z,0
2018-01-12T16:29:07.361Z,0
2018-01-12T16:30:16.458Z,0
2018-01-12T16:31:25.294Z,0
2018-01-12T16:32:34.129Z,0
2018-01-12T16:33:42.998Z,0
2018-01-12T16:34:52.113Z,0
2018-01-12T16:36:00.942Z,0
2018-01-12T16:37:09.769Z,0
2018-01-12T16:38:18.597Z,0
2018-01-12T16:39:27.424Z,0
2018-01-12T16:40:36.355Z,0
2018-01-12T16:41:45.512Z,0
2018-01-12T16:42:54.353Z,0